Etusivu
METAR-TAF:

METAR-TAF

Lentoasemat :

Holguínin lentoasema

Holguín, Kuuba

Leveyspiiri: 20-47N, Pituuspiiri: 076-19W, korkeus merenpinnasta: 106 m

Tämänhetkinen sää

Tämä raportti tehtiin 1 tunti ja 13 minuuttia sitten, kello 15.50 UTC
Tuuli 6 kn kaakosta
Lämpötila 33°C
Kosteus 63%
Ilmanpaine 1017 hPa
Näkyvyys: 9000 m
Hajanaisia pilviä 3000 ft:n korkeudessa

METAR: MUHG 201550Z 14006KT 9000 SCT030 33/25 Q1017

Aika: 13:03 (17:03 UTC)

Sääennuste

Tämä raportti tehtiin 6 tuntia ja 3 minuuttia sitten, kello 11.00 UTC
Ennuste voimassa 20. päivästä klo 12 UTC - 21. päivään klo 12 UTC
Tuuli 3 kn eri suunnista
Näkyvyys: 9000 m
Hajanaisia pilviä 2000 ft:n korkeudessa
Tulossa
20. päivästä klo 15 UTC - 20. päivään klo 17 UTC
Tuuli 10 kn idästä/koillisesta
Tulossa
21. päivästä klo 01 UTC - 21. päivään klo 03 UTC
Tuuli 3 kn eri suunnista

TAF: MUHG 201100Z 2012/2112 VRB03KT 9000 SCT020 BECMG 2015/2017 07010KT BECMG 2101/2103 VRB03KT

Säähavainnot ja -ennusteet yli 4000 lentoasemalta (METAR- ja TAF-raportit).

Käytössä olevat sääasemat on merkitty karttaan keltaisilla ja punaisilla pisteillä.

Aseta hiiri pisteen päälle nähdäksesi sääaseman nimen.

Klikkaa sitten nähdäksesi säähavainnot ja -ennusteet.

Kartan vaihtaminen: klikkaa mustalla rastilla varustettuja vihreitä pisteitä, niin voit zoomata sisään; viivalla varustettua vihreää pistettä, niin voit zoomata ulos tai vihreitä nuolia, niin pääset viereisille kartoille.


METAR-TAF: